Time;durP1;ratioP1;P1;durP2;ratioP2;P2;SDS_P1;SDS_P2;PMS_P1;PMS_P2;Temp;Humidity;BMP_temperature;BMP_pressure;BME280_temperature;BME280_humidity;BME280_pressure;Samples;Min_cycle;Max_cycle;Signal;HPM_P1;HPM_P2
2021/10/30 00:01:30;;;;;;;;;;;25.50;43.70;;;;;;5083980;28;19908;-79
2021/10/30 00:03:55;;;;;;;;;;;25.50;43.70;;;;;;5084570;28;19912;-81
2021/10/30 00:06:21;;;;;;;;;;;25.50;43.80;;;;;;5101182;28;20359;-80
2021/10/30 00:08:46;;;;;;;;;;;25.50;43.70;;;;;;5125054;27;19916;-81
2021/10/30 00:11:16;;;;;;;;;;;25.50;43.70;;;;;;5103767;28;19919;-80
2021/10/30 00:13:41;;;;;;;;;;;25.50;43.70;;;;;;5104708;27;20279;-78
2021/10/30 00:16:09;;;;;;;;;;;25.50;43.70;;;;;;5115979;28;19907;-83
2021/10/30 00:18:37;;;;;;;;;;;25.50;43.70;;;;;;5135363;27;19972;-83
2021/10/30 00:21:03;;;;;;;;;;;25.50;43.80;;;;;;5084020;28;19908;-82
2021/10/30 00:23:28;;;;;;;;;;;25.50;43.80;;;;;;5100409;28;19908;-78
2021/10/30 00:25:54;;;;;;;;;;;25.50;43.80;;;;;;5133275;27;19918;-80
2021/10/30 00:28:19;;;;;;;;;;;25.40;43.80;;;;;;5120639;27;19908;-81
2021/10/30 00:30:47;;;;;;;;;;;25.50;43.90;;;;;;5120518;27;20382;-79
2021/10/30 00:33:15;;;;;;;;;;;25.40;43.80;;;;;;5120755;27;19911;-79
2021/10/30 00:35:43;;;;;;;;;;;25.40;43.80;;;;;;5103567;27;19955;-80
2021/10/30 00:38:14;;;;;;;;;;;25.40;43.80;;;;;;5120563;27;19951;-78
2021/10/30 00:40:39;;;;;;;;;;;25.50;43.90;;;;;;5138290;27;19907;-80
2021/10/30 00:43:05;;;;;;;;;;;25.40;43.90;;;;;;5104008;28;19934;-79
2021/10/30 00:45:31;;;;;;;;;;;25.50;43.90;;;;;;5099887;28;19918;-79
2021/10/30 00:47:57;;;;;;;;;;;25.40;43.90;;;;;;5117519;28;19926;-78
2021/10/30 00:50:25;;;;;;;;;;;25.40;43.90;;;;;;5099668;28;20340;-78
2021/10/30 00:52:55;;;;;;;;;;;25.50;43.90;;;;;;5099901;28;19911;-76
2021/10/30 00:55:21;;;;;;;;;;;25.50;44.10;;;;;;5099874;28;19912;-79
2021/10/30 00:57:46;;;;;;;;;;;25.50;44.20;;;;;;5099497;28;19968;-77
2021/10/30 01:00:12;;;;;;;;;;;25.40;44.20;;;;;;5082659;28;19970;-79
2021/10/30 01:02:41;;;;;;;;;;;25.40;44.20;;;;;;5082572;28;20317;-77
2021/10/30 01:05:12;;;;;;;;;;;25.50;44.20;;;;;;5099437;28;19907;-77
2021/10/30 01:07:38;;;;;;;;;;;25.50;44.20;;;;;;5133352;27;19964;-77
2021/10/30 01:10:04;;;;;;;;;;;25.50;44.20;;;;;;5117179;28;19946;-79
2021/10/30 01:12:30;;;;;;;;;;;25.50;44.20;;;;;;5099593;28;19930;-78
2021/10/30 01:14:56;;;;;;;;;;;25.50;44.20;;;;;;5099563;28;19969;-80
2021/10/30 01:17:21;;;;;;;;;;;25.40;44.10;;;;;;5099586;27;20352;-80
2021/10/30 01:19:53;;;;;;;;;;;25.40;44.10;;;;;;5119561;27;20405;-80
2021/10/30 01:22:21;;;;;;;;;;;25.40;44.10;;;;;;5119596;27;19907;-78
2021/10/30 01:24:47;;;;;;;;;;;25.40;44.10;;;;;;5119409;27;19908;-79
2021/10/30 01:27:14;;;;;;;;;;;25.50;44.20;;;;;;5119361;27;19918;-78
2021/10/30 01:29:42;;;;;;;;;;;25.50;44.20;;;;;;5119642;27;19908;-79
2021/10/30 01:32:10;;;;;;;;;;;25.40;44.10;;;;;;5119366;27;19907;-78
2021/10/30 01:34:35;;;;;;;;;;;25.50;44.20;;;;;;5119588;27;19927;-78
2021/10/30 01:37:01;;;;;;;;;;;25.50;44.20;;;;;;5119195;27;19907;-78
2021/10/30 01:39:29;;;;;;;;;;;25.40;44.10;;;;;;5137027;27;20256;-77
2021/10/30 01:41:54;;;;;;;;;;;25.50;44.20;;;;;;5119121;27;19915;-77
2021/10/30 01:44:20;;;;;;;;;;;25.40;44.10;;;;;;5119325;27;19907;-78
2021/10/30 01:46:45;;;;;;;;;;;25.50;44.20;;;;;;5119477;27;19907;-80
2021/10/30 01:49:11;;;;;;;;;;;25.50;44.20;;;;;;5137138;27;19907;-78
2021/10/30 01:51:36;;;;;;;;;;;25.50;44.20;;;;;;5106670;27;20331;-79
2021/10/30 01:54:02;;;;;;;;;;;25.40;44.10;;;;;;5118864;27;19911;-78
2021/10/30 01:56:28;;;;;;;;;;;25.40;44.10;;;;;;5119440;27;19972;-79
2021/10/30 01:58:53;;;;;;;;;;;25.40;44.10;;;;;;5119082;27;19912;-78
2021/10/30 02:01:21;;;;;;;;;;;25.50;44.20;;;;;;5136963;27;19908;-78
2021/10/30 02:03:47;;;;;;;;;;;25.50;44.20;;;;;;5119596;27;19908;-77
2021/10/30 02:06:14;;;;;;;;;;;25.40;44.20;;;;;;5136789;27;20122;-81
2021/10/30 02:08:40;;;;;;;;;;;25.50;44.20;;;;;;5119177;27;19912;-78
2021/10/30 02:11:07;;;;;;;;;;;25.40;44.10;;;;;;5101468;27;20059;-76
2021/10/30 02:13:32;;;;;;;;;;;25.40;44.20;;;;;;5136449;27;19912;-82
2021/10/30 02:16:01;;;;;;;;;;;25.40;44.20;;;;;;5112938;28;19918;-80
2021/10/30 02:18:27;;;;;;;;;;;25.40;44.20;;;;;;5116255;28;19938;-79
2021/10/30 02:20:55;;;;;;;;;;;25.40;44.20;;;;;;5098472;28;20278;-80
2021/10/30 02:23:23;;;;;;;;;;;25.40;44.20;;;;;;5081187;28;19969;-79
2021/10/30 02:25:48;;;;;;;;;;;25.40;44.20;;;;;;5115875;28;19998;-78
2021/10/30 02:28:14;;;;;;;;;;;25.40;44.20;;;;;;5098402;28;20356;-78
2021/10/30 02:30:42;;;;;;;;;;;25.40;44.20;;;;;;5081271;28;19908;-81
2021/10/30 02:33:10;;;;;;;;;;;25.40;44.20;;;;;;5098286;28;19912;-78
2021/10/30 02:35:37;;;;;;;;;;;25.40;44.20;;;;;;5081170;28;20321;-79
2021/10/30 02:38:05;;;;;;;;;;;25.40;44.20;;;;;;5115558;28;20011;-78
2021/10/30 02:40:33;;;;;;;;;;;25.40;44.20;;;;;;5097595;28;19919;-78
2021/10/30 02:42:59;;;;;;;;;;;25.40;44.20;;;;;;5132000;27;19908;-80
2021/10/30 02:45:24;;;;;;;;;;;25.40;44.30;;;;;;5115635;28;19922;-77
2021/10/30 02:47:50;;;;;;;;;;;25.40;44.30;;;;;;5115543;28;19908;-79
2021/10/30 02:50:15;;;;;;;;;;;25.40;44.30;;;;;;5097903;28;20248;-82
2021/10/30 02:52:43;;;;;;;;;;;25.40;44.30;;;;;;5080686;28;19961;-78
2021/10/30 02:55:13;;;;;;;;;;;25.40;44.30;;;;;;5115835;28;19915;-81
2021/10/30 02:57:45;;;;;;;;;;;25.40;44.30;;;;;;5116204;28;19907;-80
2021/10/30 03:00:10;;;;;;;;;;;25.40;44.30;;;;;;5115872;28;19980;-81
2021/10/30 03:02:36;;;;;;;;;;;25.40;44.30;;;;;;5098023;28;19908;-77
2021/10/30 03:05:06;;;;;;;;;;;25.40;44.30;;;;;;5097894;28;19939;-78
2021/10/30 03:07:32;;;;;;;;;;;25.40;44.30;;;;;;5098003;28;19914;-80
2021/10/30 03:10:02;;;;;;;;;;;25.40;44.30;;;;;;5097819;28;20365;-79
2021/10/30 03:12:27;;;;;;;;;;;25.40;44.30;;;;;;5131778;28;19908;-78
2021/10/30 03:14:58;;;;;;;;;;;25.40;44.30;;;;;;5097606;28;19908;-80
2021/10/30 03:17:25;;;;;;;;;;;25.40;44.30;;;;;;5133131;28;19919;-79
2021/10/30 03:19:51;;;;;;;;;;;25.40;44.30;;;;;;5101243;28;19908;-78
2021/10/30 03:22:17;;;;;;;;;;;25.40;44.30;;;;;;5117870;28;20330;-79
2021/10/30 03:24:44;;;;;;;;;;;25.40;44.30;;;;;;5101114;28;19915;-76
2021/10/30 03:27:12;;;;;;;;;;;25.30;44.30;;;;;;5135880;28;19908;-79
2021/10/30 03:29:38;;;;;;;;;;;25.40;44.40;;;;;;5101180;28;19907;-79
2021/10/30 03:32:03;;;;;;;;;;;25.30;44.30;;;;;;5135772;28;19918;-77
2021/10/30 03:34:31;;;;;;;;;;;25.40;44.30;;;;;;5135576;28;19919;-76
2021/10/30 03:36:56;;;;;;;;;;;25.30;44.30;;;;;;5135558;28;19915;-76
2021/10/30 03:39:22;;;;;;;;;;;25.40;44.40;;;;;;5135961;28;19945;-78
2021/10/30 03:41:47;;;;;;;;;;;25.40;44.40;;;;;;5135947;28;20332;-78
2021/10/30 03:44:13;;;;;;;;;;;25.40;44.40;;;;;;5135885;28;19907;-78
2021/10/30 03:46:38;;;;;;;;;;;25.30;44.30;;;;;;5117924;28;19907;-79
2021/10/30 03:49:04;;;;;;;;;;;25.40;44.40;;;;;;5117968;28;19919;-78
2021/10/30 03:51:32;;;;;;;;;;;25.40;44.40;;;;;;5119392;27;19908;-78
2021/10/30 03:53:57;;;;;;;;;;;25.40;44.40;;;;;;5139408;27;20010;-82
2021/10/30 03:56:23;;;;;;;;;;;25.40;44.40;;;;;;5121641;27;20064;-79
2021/10/30 03:58:51;;;;;;;;;;;25.40;44.40;;;;;;5121352;27;20385;-85
2021/10/30 04:01:16;;;;;;;;;;;25.30;44.30;;;;;;5121778;27;19959;-82
2021/10/30 04:03:42;;;;;;;;;;;25.30;44.40;;;;;;5104127;27;19980;-79
2021/10/30 04:06:10;;;;;;;;;;;25.40;44.40;;;;;;5104204;27;19907;-81
2021/10/30 04:08:35;;;;;;;;;;;25.40;44.40;;;;;;5121418;27;19919;-79
2021/10/30 04:11:01;;;;;;;;;;;25.30;44.40;;;;;;5121323;27;19965;-81
2021/10/30 04:13:26;;;;;;;;;;;25.30;44.40;;;;;;5121273;27;19984;-78
2021/10/30 04:15:52;;;;;;;;;;;25.30;44.40;;;;;;5139019;27;19972;-79
2021/10/30 04:18:17;;;;;;;;;;;25.30;44.40;;;;;;5139237;27;20002;-78
2021/10/30 04:20:46;;;;;;;;;;;25.30;44.40;;;;;;5121120;27;19994;-77
2021/10/30 04:23:11;;;;;;;;;;;25.30;44.30;;;;;;5139284;27;19919;-80
2021/10/30 04:25:37;;;;;;;;;;;25.30;44.40;;;;;;5138943;27;19907;-78
2021/10/30 04:28:02;;;;;;;;;;;25.30;44.40;;;;;;5120778;27;19908;-77
2021/10/30 04:30:30;;;;;;;;;;;25.30;44.40;;;;;;5120338;27;19908;-77
2021/10/30 04:32:56;;;;;;;;;;;25.30;44.40;;;;;;5103407;27;19915;-77
2021/10/30 04:35:22;;;;;;;;;;;25.30;44.40;;;;;;5120629;27;19918;-78
2021/10/30 04:37:50;;;;;;;;;;;25.30;44.40;;;;;;5120406;27;19925;-78
2021/10/30 04:40:16;;;;;;;;;;;25.30;44.30;;;;;;5120771;27;20296;-79
2021/10/30 04:42:43;;;;;;;;;;;25.30;44.40;;;;;;5120344;27;19961;-77
2021/10/30 04:45:09;;;;;;;;;;;25.30;44.30;;;;;;5120326;27;19951;-79
2021/10/30 04:47:34;;;;;;;;;;;25.40;44.40;;;;;;5103205;27;20285;-79
2021/10/30 04:50:00;;;;;;;;;;;25.30;44.30;;;;;;5103058;27;20260;-80
2021/10/30 04:52:26;;;;;;;;;;;25.40;45.00;;;;;;5103296;27;19907;-78
2021/10/30 04:54:51;;;;;;;;;;;25.30;44.30;;;;;;5103092;27;19933;-78
2021/10/30 04:57:17;;;;;;;;;;;25.30;44.30;;;;;;5138003;27;19908;-78
2021/10/30 04:59:42;;;;;;;;;;;25.30;44.30;;;;;;5120069;27;19915;-79
2021/10/30 05:02:10;;;;;;;;;;;25.30;44.30;;;;;;5119623;27;19919;-78
2021/10/30 05:04:36;;;;;;;;;;;25.30;44.30;;;;;;5119752;27;19911;-78
2021/10/30 05:07:01;;;;;;;;;;;25.30;44.40;;;;;;5120215;27;20451;-80
2021/10/30 05:09:27;;;;;;;;;;;25.30;44.30;;;;;;5137789;27;20344;-78
2021/10/30 05:11:57;;;;;;;;;;;25.30;44.30;;;;;;5120074;27;19947;-78
2021/10/30 05:14:23;;;;;;;;;;;25.30;44.30;;;;;;5119772;27;19963;-78
2021/10/30 05:16:49;;;;;;;;;;;25.30;44.30;;;;;;5106681;28;19908;-78
2021/10/30 05:19:17;;;;;;;;;;;25.30;44.40;;;;;;5099147;28;20288;-78
2021/10/30 05:21:42;;;;;;;;;;;25.30;44.30;;;;;;5099370;28;20003;-79
2021/10/30 05:24:08;;;;;;;;;;;25.30;44.30;;;;;;5116877;28;19955;-77
2021/10/30 05:26:33;;;;;;;;;;;25.30;44.30;;;;;;5099038;28;19919;-77
2021/10/30 05:29:01;;;;;;;;;;;25.30;44.30;;;;;;5117769;28;20014;-79
2021/10/30 05:31:29;;;;;;;;;;;25.30;44.30;;;;;;5099231;28;19939;-78
2021/10/30 05:34:00;;;;;;;;;;;25.30;44.40;;;;;;5132917;27;19911;-80
2021/10/30 05:36:31;;;;;;;;;;;25.30;44.40;;;;;;5098981;28;19937;-78
2021/10/30 05:38:57;;;;;;;;;;;25.30;44.40;;;;;;5099364;28;19920;-79
2021/10/30 05:41:22;;;;;;;;;;;25.30;44.40;;;;;;5081881;28;19918;-79
2021/10/30 05:43:50;;;;;;;;;;;25.30;44.40;;;;;;5116627;28;19908;-79
2021/10/30 05:46:16;;;;;;;;;;;25.30;44.30;;;;;;5099257;28;19950;-80
2021/10/30 05:48:44;;;;;;;;;;;25.30;44.30;;;;;;5098714;28;19915;-79
2021/10/30 05:51:12;;;;;;;;;;;25.30;44.30;;;;;;5098761;28;20006;-79
2021/10/30 05:53:38;;;;;;;;;;;25.30;44.40;;;;;;5081690;28;20271;-79
2021/10/30 05:56:06;;;;;;;;;;;25.30;44.40;;;;;;5098652;28;19915;-80
2021/10/30 05:58:34;;;;;;;;;;;25.30;44.30;;;;;;5116529;28;19908;-77
2021/10/30 06:00:59;;;;;;;;;;;25.30;44.40;;;;;;5116333;28;19933;-79
2021/10/30 06:03:25;;;;;;;;;;;25.30;44.40;;;;;;5081542;28;19911;-78
2021/10/30 06:05:53;;;;;;;;;;;25.30;44.40;;;;;;5116167;28;20336;-78
2021/10/30 06:08:18;;;;;;;;;;;25.30;44.30;;;;;;5098744;28;19908;-78
2021/10/30 06:10:44;;;;;;;;;;;25.30;44.40;;;;;;5116398;28;19918;-79
2021/10/30 06:13:09;;;;;;;;;;;25.30;44.40;;;;;;5080671;28;19919;-79
2021/10/30 06:15:37;;;;;;;;;;;25.30;44.40;;;;;;5118232;27;20393;-79
2021/10/30 06:18:05;;;;;;;;;;;25.30;44.40;;;;;;5119161;27;19907;-78
2021/10/30 06:20:30;;;;;;;;;;;25.30;44.30;;;;;;5119278;27;19907;-78
2021/10/30 06:22:59;;;;;;;;;;;25.30;44.40;;;;;;5136792;27;19918;-78
2021/10/30 06:25:25;;;;;;;;;;;25.30;44.40;;;;;;5102607;27;20341;-78
2021/10/30 06:27:50;;;;;;;;;;;25.30;44.40;;;;;;5119576;27;19935;-79
2021/10/30 06:30:18;;;;;;;;;;;25.30;44.40;;;;;;5118921;27;20002;-79
2021/10/30 06:32:44;;;;;;;;;;;25.30;44.30;;;;;;5118840;27;19907;-78
2021/10/30 06:35:10;;;;;;;;;;;25.30;44.30;;;;;;5136469;27;19994;-80
2021/10/30 06:37:38;;;;;;;;;;;25.30;44.30;;;;;;5101485;27;20010;-78
2021/10/30 06:40:05;;;;;;;;;;;25.30;44.30;;;;;;5118797;27;20248;-77
2021/10/30 06:42:31;;;;;;;;;;;25.30;44.30;;;;;;5119076;27;19939;-76
2021/10/30 06:44:56;;;;;;;;;;;25.30;44.40;;;;;;5121999;27;20388;-77
2021/10/30 06:47:22;;;;;;;;;;;25.30;44.30;;;;;;5121875;28;19931;-75
2021/10/30 06:49:47;;;;;;;;;;;25.30;44.30;;;;;;5139754;27;20011;-77
2021/10/30 06:52:13;;;;;;;;;;;25.30;44.30;;;;;;5105099;27;19907;-78
2021/10/30 06:54:38;;;;;;;;;;;25.30;44.30;;;;;;5122403;28;19922;-78
2021/10/30 06:57:05;;;;;;;;;;;25.30;44.30;;;;;;5139903;28;20244;-77
2021/10/30 06:59:31;;;;;;;;;;;25.30;44.30;;;;;;5122063;28;19908;-77
2021/10/30 07:01:56;;;;;;;;;;;25.30;44.30;;;;;;5140289;28;20355;-76
2021/10/30 07:04:22;;;;;;;;;;;25.30;44.30;;;;;;5121859;28;19908;-78
2021/10/30 07:06:47;;;;;;;;;;;25.30;44.30;;;;;;5121549;28;19907;-76
2021/10/30 07:09:15;;;;;;;;;;;25.30;44.30;;;;;;5122242;28;19908;-76
2021/10/30 07:11:44;;;;;;;;;;;25.30;44.30;;;;;;5140643;28;19918;-77
2021/10/30 07:14:10;;;;;;;;;;;25.30;44.30;;;;;;5141420;28;19911;-80
2021/10/30 07:16:35;;;;;;;;;;;25.30;44.30;;;;;;5123874;28;19912;-78
2021/10/30 07:19:01;;;;;;;;;;;25.30;44.30;;;;;;5122511;28;19918;-77
2021/10/30 07:21:29;;;;;;;;;;;25.30;44.30;;;;;;5105671;28;20229;-80
2021/10/30 07:24:00;;;;;;;;;;;25.30;44.30;;;;;;5101628;28;19907;-78
2021/10/30 07:26:25;;;;;;;;;;;25.30;44.30;;;;;;5139367;27;19956;-79
2021/10/30 07:28:53;;;;;;;;;;;25.40;44.30;;;;;;5122124;27;19998;-78
2021/10/30 07:31:19;;;;;;;;;;;25.30;44.30;;;;;;5139954;27;19907;-78
2021/10/30 07:33:44;;;;;;;;;;;25.30;44.30;;;;;;5121808;27;19911;-78
2021/10/30 07:36:10;;;;;;;;;;;25.30;44.30;;;;;;5121872;27;19919;-78
2021/10/30 07:38:36;;;;;;;;;;;25.30;44.30;;;;;;5121443;27;19923;-78
2021/10/30 07:41:02;;;;;;;;;;;25.30;44.30;;;;;;5139587;27;19907;-78
2021/10/30 07:43:30;;;;;;;;;;;25.30;44.30;;;;;;5106752;27;19964;-79
2021/10/30 07:45:55;;;;;;;;;;;25.30;44.30;;;;;;5127351;27;19952;-78
2021/10/30 07:48:23;;;;;;;;;;;25.30;44.30;;;;;;5147048;27;20255;-80
2021/10/30 07:50:51;;;;;;;;;;;25.30;44.30;;;;;;5115161;27;19918;-81
2021/10/30 07:53:19;;;;;;;;;;;25.30;44.30;;;;;;5149094;27;19922;-79
2021/10/30 07:55:48;;;;;;;;;;;25.30;44.30;;;;;;5125204;27;19935;-78
2021/10/30 07:58:14;;;;;;;;;;;25.30;44.30;;;;;;5121332;27;20265;-81
2021/10/30 08:00:39;;;;;;;;;;;25.30;44.30;;;;;;5121551;27;19918;-82
2021/10/30 08:03:05;;;;;;;;;;;25.30;44.30;;;;;;5121216;27;19975;-78
2021/10/30 08:05:30;;;;;;;;;;;25.30;44.30;;;;;;5121283;27;19907;-77
2021/10/30 08:07:56;;;;;;;;;;;25.30;44.30;;;;;;5104162;27;19914;-79
2021/10/30 08:10:26;;;;;;;;;;;25.30;44.40;;;;;;5139206;27;19908;-78
2021/10/30 08:12:55;;;;;;;;;;;25.30;44.40;;;;;;5121844;27;19907;-78
2021/10/30 08:15:21;;;;;;;;;;;25.40;44.50;;;;;;5103384;27;19908;-81
2021/10/30 08:17:49;;;;;;;;;;;25.30;44.40;;;;;;5083932;28;19915;-79
2021/10/30 08:20:17;;;;;;;;;;;25.30;44.50;;;;;;5084020;28;19918;-79
2021/10/30 08:22:42;;;;;;;;;;;25.40;44.50;;;;;;5135172;27;19908;-79
2021/10/30 08:25:08;;;;;;;;;;;25.40;44.40;;;;;;5118636;28;19957;-79
2021/10/30 08:27:36;;;;;;;;;;;25.40;44.40;;;;;;5100685;28;19907;-78
2021/10/30 08:30:05;;;;;;;;;;;25.40;44.40;;;;;;5083825;28;19908;-78
2021/10/30 08:32:30;;;;;;;;;;;25.40;44.50;;;;;;5100568;28;19908;-79
2021/10/30 08:34:56;;;;;;;;;;;25.40;44.60;;;;;;5100264;28;20307;-80
2021/10/30 08:37:24;;;;;;;;;;;25.40;44.70;;;;;;5117242;28;19998;-78
2021/10/30 08:39:49;;;;;;;;;;;25.40;46.60;;;;;;5134291;27;19920;-79
2021/10/30 08:42:15;;;;;;;;;;;25.40;49.60;;;;;;5117887;28;19908;-82
2021/10/30 08:44:45;;;;;;;;;;;25.40;50.40;;;;;;5117925;28;19912;-78
2021/10/30 08:47:14;;;;;;;;;;;25.40;51.30;;;;;;5100550;28;19915;-78
2021/10/30 08:49:39;;;;;;;;;;;25.40;51.30;;;;;;5082989;28;19939;-79
2021/10/30 08:52:06;;;;;;;;;;;25.50;51.40;;;;;;5117266;28;19912;-81
2021/10/30 08:54:37;;;;;;;;;;;25.40;51.40;;;;;;5102702;28;19912;-79
2021/10/30 08:57:05;;;;;;;;;;;25.40;51.70;;;;;;5086060;28;19931;-80
2021/10/30 08:59:43;;;;;;;;;;;25.40;51.50;;;;;;5091271;28;19935;-79
2021/10/30 09:02:29;;;;;;;;;;;25.40;51.50;;;;;;5103605;28;19958;-82
2021/10/30 09:05:11;;;;;;;;;;;25.40;51.00;;;;;;5123721;28;19908;-81
2021/10/30 09:07:36;;;;;;;;;;;25.40;51.20;;;;;;5104713;28;19920;-81
2021/10/30 09:10:06;;;;;;;;;;;25.40;51.00;;;;;;5105067;28;19912;-85
2021/10/30 09:12:32;;;;;;;;;;;25.40;50.50;;;;;;5084072;28;19982;-77
2021/10/30 09:14:57;;;;;;;;;;;25.40;43.20;;;;;;5134231;27;19954;-77
2021/10/30 09:17:23;;;;;;;;;;;23.40;41.60;;;;;;5083035;28;19907;-77
2021/10/30 09:19:52;;;;;;;;;;;21.00;43.20;;;;;;5084951;28;19960;-78
2021/10/30 09:22:21;;;;;;;;;;;20.70;42.20;;;;;;5084770;28;20205;-78
2021/10/30 09:25:01;;;;;;;;;;;20.00;42.70;;;;;;5101591;28;19911;-78
2021/10/30 09:27:42;;;;;;;;;;;19.50;44.30;;;;;;5100623;28;19907;-76
2021/10/30 09:30:08;;;;;;;;;;;19.40;43.90;;;;;;5119578;28;19919;-79
2021/10/30 09:32:33;;;;;;;;;;;19.70;47.00;;;;;;5085466;28;20305;-79
2021/10/30 09:35:01;;;;;;;;;;;20.60;46.70;;;;;;5102838;28;19912;-84
2021/10/30 09:37:29;;;;;;;;;;;21.40;45.60;;;;;;5085628;28;19908;-81
2021/10/30 09:40:14;;;;;;;;;;;22.00;45.00;;;;;;5084821;28;19911;-82
2021/10/30 09:42:39;;;;;;;;;;;22.60;45.00;;;;;;5119620;28;19994;-82
2021/10/30 09:45:07;;;;;;;;;;;23.00;44.50;;;;;;5084003;28;20343;-82
2021/10/30 09:47:33;;;;;;;;;;;23.30;44.20;;;;;;5099296;28;19908;-80
2021/10/30 09:49:58;;;;;;;;;;;23.50;43.80;;;;;;5082082;28;19945;-82
2021/10/30 09:52:29;;;;;;;;;;;23.70;43.50;;;;;;5081674;28;20356;-81
2021/10/30 09:54:59;;;;;;;;;;;23.80;43.40;;;;;;5082176;28;19961;-84
2021/10/30 09:57:34;;;;;;;;;;;23.90;43.50;;;;;;5099862;28;19908;-81
2021/10/30 10:00:00;;;;;;;;;;;24.10;43.50;;;;;;5081909;28;19973;-82
2021/10/30 10:02:25;;;;;;;;;;;24.10;43.60;;;;;;5098828;28;20335;-81
2021/10/30 10:04:51;;;;;;;;;;;24.10;43.70;;;;;;5081946;28;19908;-82
2021/10/30 10:07:17;;;;;;;;;;;24.20;43.80;;;;;;5098553;28;19953;-80
2021/10/30 10:09:44;;;;;;;;;;;24.30;43.80;;;;;;5081716;28;20315;-80
2021/10/30 10:12:12;;;;;;;;;;;24.30;43.80;;;;;;5081887;28;19968;-81
2021/10/30 10:14:40;;;;;;;;;;;24.40;44.00;;;;;;5082148;28;19997;-82
2021/10/30 10:17:05;;;;;;;;;;;24.40;44.00;;;;;;5096749;27;19923;-81
2021/10/30 10:19:33;;;;;;;;;;;24.40;44.00;;;;;;5101645;27;19907;-82
2021/10/30 10:21:59;;;;;;;;;;;24.40;44.00;;;;;;5119079;27;19911;-82
2021/10/30 10:24:33;;;;;;;;;;;24.50;44.00;;;;;;5102053;27;19965;-81
2021/10/30 10:26:59;;;;;;;;;;;24.50;44.10;;;;;;5102429;27;20022;-81
2021/10/30 10:29:30;;;;;;;;;;;24.50;44.10;;;;;;5101466;27;19956;-82
2021/10/30 10:31:56;;;;;;;;;;;24.50;44.10;;;;;;5118704;27;19979;-81
2021/10/30 10:34:22;;;;;;;;;;;24.50;44.40;;;;;;5119056;27;19912;-82
2021/10/30 10:36:50;;;;;;;;;;;24.60;44.80;;;;;;5118437;27;19907;-79
2021/10/30 10:39:19;;;;;;;;;;;24.60;44.60;;;;;;5101188;27;19952;-80
2021/10/30 10:41:49;;;;;;;;;;;24.70;44.60;;;;;;5101180;28;19919;-81
2021/10/30 10:44:26;;;;;;;;;;;24.70;44.50;;;;;;5101951;27;19911;-84
2021/10/30 10:46:56;;;;;;;;;;;24.70;44.60;;;;;;5118108;27;19908;-80
2021/10/30 10:49:45;;;;;;;;;;;24.70;44.70;;;;;;5101317;28;20287;-78
2021/10/30 10:54:58;;;;;;;;;;;24.70;44.70;;;;;;5118903;28;19954;-80
2021/10/30 10:57:30;;;;;;;;;;;24.70;44.60;;;;;;5118234;28;19907;-81
2021/10/30 11:00:04;;;;;;;;;;;24.70;44.80;;;;;;5138613;27;20244;-82
2021/10/30 11:02:33;;;;;;;;;;;24.70;44.80;;;;;;5143190;27;20389;-83
2021/10/30 11:05:07;;;;;;;;;;;24.70;44.80;;;;;;5107842;27;19981;-81
2021/10/30 11:07:38;;;;;;;;;;;24.70;44.80;;;;;;5124908;27;19907;-80
2021/10/30 11:10:13;;;;;;;;;;;24.70;44.80;;;;;;5108084;27;19907;-80
2021/10/30 11:12:41;;;;;;;;;;;24.80;44.90;;;;;;5125672;27;19968;-81
2021/10/30 11:15:06;;;;;;;;;;;24.80;44.90;;;;;;5107729;27;19915;-83
2021/10/30 11:17:46;;;;;;;;;;;24.80;44.90;;;;;;5142717;27;20342;-81
2021/10/30 11:20:18;;;;;;;;;;;24.80;44.90;;;;;;5113078;28;19908;-80
2021/10/30 11:22:57;;;;;;;;;;;24.80;45.10;;;;;;5104957;28;19907;-80
2021/10/30 11:25:23;;;;;;;;;;;24.80;45.10;;;;;;5087259;28;19915;-83
2021/10/30 11:27:57;;;;;;;;;;;24.80;45.30;;;;;;5087633;28;19907;-79
2021/10/30 11:30:41;;;;;;;;;;;24.80;45.20;;;;;;5087652;28;19919;-82
2021/10/30 11:33:28;;;;;;;;;;;24.80;45.20;;;;;;5087619;28;20009;-82
2021/10/30 11:36:01;;;;;;;;;;;24.80;45.10;;;;;;5104282;28;19908;-80
2021/10/30 11:38:27;;;;;;;;;;;24.90;45.10;;;;;;5103965;28;20252;-81
2021/10/30 11:41:02;;;;;;;;;;;25.00;45.20;;;;;;5104248;28;19915;-78
2021/10/30 11:43:28;;;;;;;;;;;25.00;45.50;;;;;;5104207;28;19915;-82
2021/10/30 11:45:55;;;;;;;;;;;25.00;45.60;;;;;;5104304;28;20268;-79
2021/10/30 11:48:23;;;;;;;;;;;25.00;45.60;;;;;;5103858;28;20296;-83
2021/10/30 11:50:54;;;;;;;;;;;25.00;45.50;;;;;;5086967;28;19908;-80
2021/10/30 11:53:20;;;;;;;;;;;25.10;45.40;;;;;;5086745;28;20018;-78
2021/10/30 11:55:51;;;;;;;;;;;25.10;45.40;;;;;;5087722;28;20357;-79
2021/10/30 11:58:36;;;;;;;;;;;25.10;45.30;;;;;;5103842;28;19947;-82
2021/10/30 12:01:16;;;;;;;;;;;25.10;45.30;;;;;;5103607;28;20249;-79
2021/10/30 12:03:44;;;;;;;;;;;25.10;45.30;;;;;;5086716;28;20322;-79
2021/10/30 12:06:09;;;;;;;;;;;25.10;45.30;;;;;;5103816;28;19961;-79
2021/10/30 12:08:35;;;;;;;;;;;25.00;45.20;;;;;;5103758;28;20248;-79
2021/10/30 12:11:03;;;;;;;;;;;25.00;45.20;;;;;;5085172;28;20294;-79
2021/10/30 12:13:29;;;;;;;;;;;25.10;45.20;;;;;;5083080;28;19911;-80
2021/10/30 12:15:57;;;;;;;;;;;25.00;45.20;;;;;;5088767;27;19907;-79
2021/10/30 12:18:23;;;;;;;;;;;25.10;45.20;;;;;;5120899;27;19908;-79
2021/10/30 12:20:48;;;;;;;;;;;25.10;45.10;;;;;;5103973;27;19907;-78
2021/10/30 12:23:14;;;;;;;;;;;25.10;45.10;;;;;;5103769;27;19919;-79
2021/10/30 12:25:42;;;;;;;;;;;25.10;45.10;;;;;;5103885;27;19915;-79
2021/10/30 12:28:07;;;;;;;;;;;25.10;45.10;;;;;;5103754;27;19937;-82
2021/10/30 12:30:35;;;;;;;;;;;25.10;45.10;;;;;;5120720;27;19908;-78
2021/10/30 12:33:09;;;;;;;;;;;25.10;45.10;;;;;;5124593;27;20069;-77
2021/10/30 12:35:37;;;;;;;;;;;25.10;45.10;;;;;;5104322;27;19918;-81
2021/10/30 12:38:13;;;;;;;;;;;25.10;45.20;;;;;;5120253;27;19919;-81
2021/10/30 12:40:38;;;;;;;;;;;25.10;45.10;;;;;;5120475;27;20012;-78
2021/10/30 12:43:08;;;;;;;;;;;25.10;45.20;;;;;;5120741;27;19916;-79
2021/10/30 12:45:39;;;;;;;;;;;25.10;45.10;;;;;;5120449;27;19960;-79
2021/10/30 12:48:08;;;;;;;;;;;25.10;45.10;;;;;;5103387;27;19917;-80
2021/10/30 12:50:34;;;;;;;;;;;25.10;45.10;;;;;;5084308;28;19908;-79
2021/10/30 12:52:59;;;;;;;;;;;25.10;45.30;;;;;;5099655;28;20395;-77
2021/10/30 12:55:25;;;;;;;;;;;25.10;45.40;;;;;;5083783;28;19915;-79
2021/10/30 12:57:56;;;;;;;;;;;25.20;45.50;;;;;;5082959;28;19962;-80
2021/10/30 13:00:27;;;;;;;;;;;25.20;45.40;;;;;;5082756;28;19950;-80
2021/10/30 13:02:52;;;;;;;;;;;25.30;45.20;;;;;;5099243;28;19964;-79
2021/10/30 13:05:21;;;;;;;;;;;25.30;45.30;;;;;;5099359;28;19916;-77
2021/10/30 13:08:05;;;;;;;;;;;25.30;45.30;;;;;;5099642;28;19941;-78
2021/10/30 13:10:31;;;;;;;;;;;25.30;45.30;;;;;;5096528;28;19954;-76
2021/10/30 13:12:56;;;;;;;;;;;25.40;45.40;;;;;;5079352;28;19969;-80
2021/10/30 13:15:22;;;;;;;;;;;25.40;45.40;;;;;;5096997;28;19935;-79
2021/10/30 13:17:47;;;;;;;;;;;25.40;45.20;;;;;;5079218;28;19912;-78
2021/10/30 13:20:14;;;;;;;;;;;25.50;45.00;;;;;;5062223;28;20344;-79
2021/10/30 13:22:40;;;;;;;;;;;25.50;44.80;;;;;;5062144;28;19919;-77
2021/10/30 13:25:08;;;;;;;;;;;25.50;44.80;;;;;;5078770;28;19920;-80
2021/10/30 13:27:36;;;;;;;;;;;25.50;44.70;;;;;;5079431;28;19908;-77
2021/10/30 13:30:03;;;;;;;;;;;25.50;44.80;;;;;;5079373;28;19961;-79
2021/10/30 13:32:28;;;;;;;;;;;25.40;44.80;;;;;;5095610;28;20011;-78
2021/10/30 13:34:54;;;;;;;;;;;25.40;45.00;;;;;;5078930;28;20411;-79
2021/10/30 13:37:19;;;;;;;;;;;25.40;45.20;;;;;;5078798;28;19919;-79
2021/10/30 13:39:47;;;;;;;;;;;25.40;45.10;;;;;;5095189;28;19920;-78
2021/10/30 13:42:15;;;;;;;;;;;25.40;44.90;;;;;;5079129;28;19962;-80
2021/10/30 13:44:41;;;;;;;;;;;25.40;44.80;;;;;;5078663;28;20306;-78
2021/10/30 13:47:06;;;;;;;;;;;25.40;44.70;;;;;;5078550;28;19912;-77
2021/10/30 13:49:32;;;;;;;;;;;25.40;44.70;;;;;;5078740;28;19909;-82
2021/10/30 13:52:00;;;;;;;;;;;25.40;44.70;;;;;;5062508;28;19908;-82
2021/10/30 13:54:27;;;;;;;;;;;25.40;44.70;;;;;;5079483;28;19913;-79
2021/10/30 13:56:55;;;;;;;;;;;25.40;44.70;;;;;;5080712;28;19916;-81
2021/10/30 13:59:21;;;;;;;;;;;25.40;44.70;;;;;;5078405;28;20333;-80
2021/10/30 14:01:49;;;;;;;;;;;25.40;44.70;;;;;;5078852;28;19923;-83
2021/10/30 14:04:16;;;;;;;;;;;25.40;44.70;;;;;;5079035;28;19935;-81
2021/10/30 14:06:44;;;;;;;;;;;25.40;44.70;;;;;;5062296;28;19908;-81
2021/10/30 14:09:10;;;;;;;;;;;25.40;44.80;;;;;;5061988;28;19915;-80
2021/10/30 14:11:38;;;;;;;;;;;25.40;44.70;;;;;;5078868;28;19969;-82
2021/10/30 14:14:04;;;;;;;;;;;25.40;44.70;;;;;;5078659;28;19912;-83
2021/10/30 14:16:32;;;;;;;;;;;25.40;44.70;;;;;;5078833;28;19969;-81
2021/10/30 14:19:00;;;;;;;;;;;25.40;44.70;;;;;;5061902;28;19915;-78
2021/10/30 14:21:25;;;;;;;;;;;25.40;44.70;;;;;;5063114;28;19908;-81